Anna — D5LB6 — position and weather

sailwx.info

Track history (hours):
 
Tides and Currents Weather Stations Pressure Air Temp Water Temp Dewpoint Dewpoint Depression Visibility Wind Speed Wind Dir Waves Ship Positions

Anna

Last reported at 2018-Feb-18 08:18 UTC. Time now 2018-Feb-26 02:00 UTC.
Position N 36°22' E 014°50'.

Length 189 m; draft 10.2 m.

Type: Cargo ship. MMSI: 636017462.

Date/timePositionNaut miles runAvg speedWind from/ knotsBaromVisibWave heightAir tempDewpointWater temp
2018-Feb-18 08:18N 36°22' E 014°50'413.8
2018-Feb-18 08:00N 36°22' E 014°45'713.7
2018-Feb-18 07:30N 36°22' E 014°37'713.6
2018-Feb-18 07:00N 36°22' E 014°28'713.5
2018-Feb-18 06:29N 36°22' E 014°20'713.7
2018-Feb-18 06:00N 36°25' E 014°12'713.6
2018-Feb-18 05:30N 36°27' E 014°04'713.7
2018-Feb-18 05:00N 36°29' E 013°56'62613.5
2018-Feb-16 06:42N 36°46' E 000°56'413.8
2018-Feb-16 06:26N 36°46' E 000°52'2814.0
2018-Feb-16 04:26N 36°40' E 000°18'813.9
2018-Feb-16 03:50N 36°38' E 000°08'2013.7
2018-Feb-16 02:23N 36°34' W 000°17'513.3
2018-Feb-16 01:59N 36°33' W 000°23'813.1
2018-Feb-16 01:25N 36°32' W 000°32'613.2
2018-Feb-16 00:59N 36°31' W 000°39'22213.9
2018-Feb-15 09:01N 36°01' W 005°12'016.2
2018-Feb-15 09:00N 36°01' W 005°13'816.7
2018-Feb-15 08:30N 35°59' W 005°22'26311.9
2018-Feb-14 10:23N 38°20' W 010°00'613.6
2018-Feb-14 09:56N 38°26' W 010°03'613.7
2018-Feb-14 09:29N 38°32' W 010°05'713.4
2018-Feb-14 09:00N 38°38' W 010°06'613.1
2018-Feb-14 08:30N 38°45' W 010°07'713.1
2018-Feb-14 07:57N 38°52' W 010°07'612.9
2018-Feb-14 07:30N 38°58' W 010°07'612.9
2018-Feb-14 07:00N 39°04' W 010°07'612.7
2018-Feb-14 06:30N 39°11' W 010°07'1012.5
2018-Feb-14 05:43N 39°20' W 010°07'312.4
2018-Feb-14 05:27N 39°24' W 010°07'  
2018-Feb-11 15:18N 49°38' W 003°52'1010.0
2018-Feb-11 14:20N 49°43' W 003°39'310.3
2018-Feb-11 14:01N 49°45' W 003°34'510.5
2018-Feb-11 13:29N 49°47' W 003°27'510.9
2018-Feb-11 13:00N 49°50' W 003°20'611.2
2018-Feb-11 12:30N 49°53' W 003°12'611.5
2018-Feb-11 12:00N 49°56' W 003°05'611.9
2018-Feb-11 11:30N 49°58' W 002°56'611.9
2018-Feb-11 10:59N 50°00' W 002°47'2912.2
2018-Feb-11 08:35N 50°08' W 002°03'211.3
2018-Feb-11 08:26N 50°09' W 002°01'511.0
2018-Feb-11 08:00N 50°10' W 001°54'510.5
2018-Feb-11 07:30N 50°11' W 001°46'5 9.9
2018-Feb-11 07:00N 50°12' W 001°38'5 9.4
2018-Feb-11 06:30N 50°14' W 001°31'4 8.8
2018-Feb-11 06:00N 50°15' W 001°24'4 8.3
2018-Feb-11 05:30N 50°15' W 001°18'4 8.1
2018-Feb-11 05:00N 50°16' W 001°12'15 8.5
2018-Feb-11 03:17N 50°22' W 000°51'3 9.5
2018-Feb-11 03:00N 50°22' W 000°46'1410.0
2018-Feb-11 01:38N 50°26' W 000°26'110.4
2018-Feb-11 01:30N 50°26' W 000°24'510.7
2018-Feb-11 01:00N 50°28' W 000°16'510.8
2018-Feb-11 00:30N 50°29' W 000°08'510.7
2018-Feb-11 00:00N 50°31' E 000°00'510.4
2018-Feb-10 23:30N 50°32' E 000°08'510.3
2018-Feb-10 23:01N 50°33' E 000°16'510.1
2018-Feb-10 22:30N 50°35' E 000°24'5 9.9
2018-Feb-10 22:01N 50°36' E 000°31'5 9.3
2018-Feb-10 21:30N 50°38' E 000°38'5 9.3
2018-Feb-10 21:00N 50°40' E 000°44'5 8.9
2018-Feb-10 20:30N 50°43' E 000°50'4 8.7
2018-Feb-10 20:01N 50°45' E 000°56'4 8.7
2018-Feb-10 19:31N 50°48' E 001°01'5 8.8
2018-Feb-10 18:58N 50°50' E 001°08'4 9.0
2018-Feb-10 18:30N 50°53' E 001°13'4 8.9
2018-Feb-10 18:00N 50°55' E 001°19'5 9.1
2018-Feb-10 17:30N 50°59' E 001°23'510.0
2018-Feb-10 17:01N 51°03' E 001°28'510.6
2018-Feb-10 16:31N 51°07' E 001°34'611.2
2018-Feb-10 16:00N 51°11' E 001°40'611.7
2018-Feb-10 15:30N 51°15' E 001°46'612.2
2018-Feb-10 15:00N 51°20' E 001°51'611.9
2018-Feb-10 14:30N 51°25' E 001°57'611.7
2018-Feb-10 14:00N 51°24' E 002°07'612.8
2018-Feb-10 13:30N 51°21' E 002°16'611.9
2018-Feb-10 12:59N 51°22' E 002°26'612.0
2018-Feb-10 12:29N 51°23' E 002°35'510.4
2018-Feb-10 12:00N 51°23' E 002°43'4 8.1
2018-Feb-10 11:30N 51°22' E 002°50'4 8.2
2018-Feb-10 11:01N 51°23' E 002°56'4 8.0
2018-Feb-10 10:31N 51°24' E 003°02'4 7.6
2018-Feb-10 10:01N 51°24' E 003°08'4 8.0
2018-Feb-10 09:31N 51°25' E 003°14'4 7.9
2018-Feb-10 09:01N 51°24' E 003°21'4 7.6
2018-Feb-10 08:30N 51°25' E 003°27'4 7.5
2018-Feb-10 08:01N 51°26' E 003°33'3 6.9
2018-Feb-10 07:31N 51°26' E 003°38'4 8.2
2018-Feb-10 07:01N 51°23' E 003°43'610.8
2018-Feb-10 06:29N 51°21' E 003°51'510.6
2018-Feb-10 06:00N 51°24' E 003°57'3 6.3
2018-Feb-10 05:31N 51°25' E 004°02'4 8.9
2018-Feb-10 05:01N 51°22' E 004°08'4 7.2
2018-Feb-10 04:30N 51°21' E 004°14'4 7.9
2018-Feb-10 04:00N 51°18' E 004°16'1 2.7
2018-Feb-10 03:31N 51°17' E 004°15'0 0.0
2018-Feb-10 03:00N 51°17' E 004°15'1 1.3
2018-Feb-10 02:30N 51°16' E 004°15'0 0.1
2018-Feb-10 02:00N 51°16' E 004°15'0 0.0
2018-Feb-10 01:30N 51°16' E 004°15'0 0.0
2018-Feb-10 01:00N 51°16' E 004°15'0 0.0
2018-Feb-10 00:30N 51°16' E 004°15'0 0.0
2018-Feb-09 23:57N 51°16' E 004°15'0 0.0
2018-Feb-09 23:30N 51°16' E 004°15'0 0.0
2018-Feb-09 23:00N 51°16' E 004°15'0 0.0
2018-Feb-09 22:45N 51°16' E 004°15'  
Track history (hours):
 
Tides and Currents Weather Stations Pressure Air Temp Water Temp Dewpoint Dewpoint Depression Visibility Wind Speed Wind Dir Waves Ship Positions

Anna

Last reported at 2018-Feb-18 08:18 UTC. Time now 2018-Feb-26 02:00 UTC.
Position N 36°22' E 014°50'.

Length 189 m; draft 10.2 m.

Type: Cargo ship. MMSI: 636017462.

Date/timePositionNaut miles runAvg speedWind from/ knotsBaromVisibWave heightAir tempDewpointWater temp
2018-Feb-18 08:18N 36°22' E 014°50'413.8
2018-Feb-18 08:00N 36°22' E 014°45'713.7
2018-Feb-18 07:30N 36°22' E 014°37'713.6
2018-Feb-18 07:00N 36°22' E 014°28'713.5
2018-Feb-18 06:29N 36°22' E 014°20'713.7
2018-Feb-18 06:00N 36°25' E 014°12'713.6
2018-Feb-18 05:30N 36°27' E 014°04'713.7
2018-Feb-18 05:00N 36°29' E 013°56'62613.5
2018-Feb-16 06:42N 36°46' E 000°56'413.8
2018-Feb-16 06:26N 36°46' E 000°52'2814.0
2018-Feb-16 04:26N 36°40' E 000°18'813.9
2018-Feb-16 03:50N 36°38' E 000°08'2013.7
2018-Feb-16 02:23N 36°34' W 000°17'513.3
2018-Feb-16 01:59N 36°33' W 000°23'813.1
2018-Feb-16 01:25N 36°32' W 000°32'613.2
2018-Feb-16 00:59N 36°31' W 000°39'22213.9
2018-Feb-15 09:01N 36°01' W 005°12'016.2
2018-Feb-15 09:00N 36°01' W 005°13'816.7
2018-Feb-15 08:30N 35°59' W 005°22'26311.9
2018-Feb-14 10:23N 38°20' W 010°00'613.6
2018-Feb-14 09:56N 38°26' W 010°03'613.7
2018-Feb-14 09:29N 38°32' W 010°05'713.4
2018-Feb-14 09:00N 38°38' W 010°06'613.1
2018-Feb-14 08:30N 38°45' W 010°07'713.1
2018-Feb-14 07:57N 38°52' W 010°07'612.9
2018-Feb-14 07:30N 38°58' W 010°07'612.9
2018-Feb-14 07:00N 39°04' W 010°07'612.7
2018-Feb-14 06:30N 39°11' W 010°07'1012.5
2018-Feb-14 05:43N 39°20' W 010°07'312.4
2018-Feb-14 05:27N 39°24' W 010°07'  
2018-Feb-11 15:18N 49°38' W 003°52'1010.0
2018-Feb-11 14:20N 49°43' W 003°39'310.3
2018-Feb-11 14:01N 49°45' W 003°34'510.5
2018-Feb-11 13:29N 49°47' W 003°27'510.9
2018-Feb-11 13:00N 49°50' W 003°20'611.2
2018-Feb-11 12:30N 49°53' W 003°12'611.5
2018-Feb-11 12:00N 49°56' W 003°05'611.9
2018-Feb-11 11:30N 49°58' W 002°56'611.9
2018-Feb-11 10:59N 50°00' W 002°47'2912.2
2018-Feb-11 08:35N 50°08' W 002°03'211.3
2018-Feb-11 08:26N 50°09' W 002°01'511.0
2018-Feb-11 08:00N 50°10' W 001°54'510.5
2018-Feb-11 07:30N 50°11' W 001°46'5 9.9
2018-Feb-11 07:00N 50°12' W 001°38'5 9.4
2018-Feb-11 06:30N 50°14' W 001°31'4 8.8
2018-Feb-11 06:00N 50°15' W 001°24'4 8.3
2018-Feb-11 05:30N 50°15' W 001°18'4 8.1
2018-Feb-11 05:00N 50°16' W 001°12'15 8.5
2018-Feb-11 03:17N 50°22' W 000°51'3 9.5
2018-Feb-11 03:00N 50°22' W 000°46'1410.0
2018-Feb-11 01:38N 50°26' W 000°26'110.4
2018-Feb-11 01:30N 50°26' W 000°24'510.7
2018-Feb-11 01:00N 50°28' W 000°16'510.8
2018-Feb-11 00:30N 50°29' W 000°08'510.7
2018-Feb-11 00:00N 50°31' E 000°00'510.4
2018-Feb-10 23:30N 50°32' E 000°08'510.3
2018-Feb-10 23:01N 50°33' E 000°16'510.1
2018-Feb-10 22:30N 50°35' E 000°24'5 9.9
2018-Feb-10 22:01N 50°36' E 000°31'5 9.3
2018-Feb-10 21:30N 50°38' E 000°38'5 9.3
2018-Feb-10 21:00N 50°40' E 000°44'5 8.9
2018-Feb-10 20:30N 50°43' E 000°50'4 8.7
2018-Feb-10 20:01N 50°45' E 000°56'4 8.7
2018-Feb-10 19:31N 50°48' E 001°01'5 8.8
2018-Feb-10 18:58N 50°50' E 001°08'4 9.0
2018-Feb-10 18:30N 50°53' E 001°13'4 8.9
2018-Feb-10 18:00N 50°55' E 001°19'5 9.1
2018-Feb-10 17:30N 50°59' E 001°23'510.0
2018-Feb-10 17:01N 51°03' E 001°28'510.6
2018-Feb-10 16:31N 51°07' E 001°34'611.2
2018-Feb-10 16:00N 51°11' E 001°40'611.7
2018-Feb-10 15:30N 51°15' E 001°46'612.2
2018-Feb-10 15:00N 51°20' E 001°51'611.9
2018-Feb-10 14:30N 51°25' E 001°57'611.7
2018-Feb-10 14:00N 51°24' E 002°07'612.8
2018-Feb-10 13:30N 51°21' E 002°16'611.9
2018-Feb-10 12:59N 51°22' E 002°26'612.0
2018-Feb-10 12:29N 51°23' E 002°35'510.4
2018-Feb-10 12:00N 51°23' E 002°43'4 8.1
2018-Feb-10 11:30N 51°22' E 002°50'4 8.2
2018-Feb-10 11:01N 51°23' E 002°56'4 8.0
2018-Feb-10 10:31N 51°24' E 003°02'4 7.6
2018-Feb-10 10:01N 51°24' E 003°08'4 8.0
2018-Feb-10 09:31N 51°25' E 003°14'4 7.9
2018-Feb-10 09:01N 51°24' E 003°21'4 7.6
2018-Feb-10 08:30N 51°25' E 003°27'4 7.5
2018-Feb-10 08:01N 51°26' E 003°33'3 6.9
2018-Feb-10 07:31N 51°26' E 003°38'4 8.2
2018-Feb-10 07:01N 51°23' E 003°43'610.8
2018-Feb-10 06:29N 51°21' E 003°51'510.6
2018-Feb-10 06:00N 51°24' E 003°57'3 6.3
2018-Feb-10 05:31N 51°25' E 004°02'4 8.9
2018-Feb-10 05:01N 51°22' E 004°08'4 7.2
2018-Feb-10 04:30N 51°21' E 004°14'4 7.9
2018-Feb-10 04:00N 51°18' E 004°16'1 2.7
2018-Feb-10 03:31N 51°17' E 004°15'0 0.0
2018-Feb-10 03:00N 51°17' E 004°15'1 1.3
2018-Feb-10 02:30N 51°16' E 004°15'0 0.1
2018-Feb-10 02:00N 51°16' E 004°15'0 0.0
2018-Feb-10 01:30N 51°16' E 004°15'0 0.0
2018-Feb-10 01:00N 51°16' E 004°15'0 0.0
2018-Feb-10 00:30N 51°16' E 004°15'0 0.0
2018-Feb-09 23:57N 51°16' E 004°15'0 0.0
2018-Feb-09 23:30N 51°16' E 004°15'0 0.0
2018-Feb-09 23:00N 51°16' E 004°15'0 0.0
2018-Feb-09 22:45N 51°16' E 004°15'  

Dump ship's entire track history